sensor_id;sensor_type;location;lat;lon;timestamp;pressure;altitude;pressure_sealevel;temperature;humidity
72024;BME280;59889;50.700;5.440;2024-03-08T00:01:24;99968.84;;;21.35;33.72
72024;BME280;59889;50.700;5.440;2024-03-08T00:03:49;99968.52;;;21.34;33.94
72024;BME280;59889;50.700;5.440;2024-03-08T00:06:14;99958.58;;;21.20;33.85
72024;BME280;59889;50.700;5.440;2024-03-08T00:08:39;99959.99;;;21.54;33.77
72024;BME280;59889;50.700;5.440;2024-03-08T00:11:05;99957.17;;;21.22;33.85
72024;BME280;59889;50.700;5.440;2024-03-08T00:13:30;99955.79;;;21.10;33.94
72024;BME280;59889;50.700;5.440;2024-03-08T00:15:55;99955.08;;;21.21;33.84
72024;BME280;59889;50.700;5.440;2024-03-08T00:18:20;99957.97;;;21.65;33.62
72024;BME280;59889;50.700;5.440;2024-03-08T00:20:46;99955.10;;;21.17;33.87
72024;BME280;59889;50.700;5.440;2024-03-08T00:23:11;99952.52;;;20.94;33.83
72024;BME280;59889;50.700;5.440;2024-03-08T00:25:36;99950.17;;;21.16;33.88
72024;BME280;59889;50.700;5.440;2024-03-08T00:28:02;99952.92;;;21.38;33.66
72024;BME280;59889;50.700;5.440;2024-03-08T00:30:27;99953.53;;;21.36;33.66
72024;BME280;59889;50.700;5.440;2024-03-08T00:32:52;99952.77;;;21.36;33.65
72024;BME280;59889;50.700;5.440;2024-03-08T00:35:17;99948.34;;;21.03;33.74
72024;BME280;59889;50.700;5.440;2024-03-08T00:37:43;99947.37;;;21.25;33.76
72024;BME280;59889;50.700;5.440;2024-03-08T00:40:08;99945.93;;;21.24;33.72
72024;BME280;59889;50.700;5.440;2024-03-08T00:42:33;99944.71;;;21.36;33.63
72024;BME280;59889;50.700;5.440;2024-03-08T00:44:59;99942.11;;;20.95;33.81
72024;BME280;59889;50.700;5.440;2024-03-08T00:47:24;99943.46;;;21.24;33.75
72024;BME280;59889;50.700;5.440;2024-03-08T00:49:49;99944.30;;;21.14;33.59
72024;BME280;59889;50.700;5.440;2024-03-08T00:52:14;99941.47;;;21.27;33.69
72024;BME280;59889;50.700;5.440;2024-03-08T00:54:40;99938.78;;;21.12;33.55
72024;BME280;59889;50.700;5.440;2024-03-08T00:57:05;99935.86;;;21.12;33.60
72024;BME280;59889;50.700;5.440;2024-03-08T00:59:30;99932.48;;;21.00;33.69
72024;BME280;59889;50.700;5.440;2024-03-08T01:01:55;99932.19;;;21.43;33.53
72024;BME280;59889;50.700;5.440;2024-03-08T01:04:21;99930.30;;;21.42;33.52
72024;BME280;59889;50.700;5.440;2024-03-08T01:06:46;99927.54;;;21.22;33.73
72024;BME280;59889;50.700;5.440;2024-03-08T01:09:11;99925.90;;;21.28;33.66
72024;BME280;59889;50.700;5.440;2024-03-08T01:11:36;99922.18;;;21.18;33.77
72024;BME280;59889;50.700;5.440;2024-03-08T01:14:02;99923.27;;;21.40;33.52
72024;BME280;59889;50.700;5.440;2024-03-08T01:16:27;99919.43;;;21.50;33.68
72024;BME280;59889;50.700;5.440;2024-03-08T01:18:52;99916.65;;;21.40;33.77
72024;BME280;59889;50.700;5.440;2024-03-08T01:21:18;99911.82;;;21.16;33.75
72024;BME280;59889;50.700;5.440;2024-03-08T01:23:43;99910.43;;;21.43;33.72
72024;BME280;59889;50.700;5.440;2024-03-08T01:26:08;99908.64;;;21.39;33.54
72024;BME280;59889;50.700;5.440;2024-03-08T01:28:34;99903.16;;;21.17;33.73
72024;BME280;59889;50.700;5.440;2024-03-08T01:30:59;99898.97;;;21.24;33.66
72024;BME280;59889;50.700;5.440;2024-03-08T01:33:25;99897.15;;;20.96;33.70
72024;BME280;59889;50.700;5.440;2024-03-08T01:35:49;99895.41;;;21.29;33.61
72024;BME280;59889;50.700;5.440;2024-03-08T01:38:15;99890.94;;;21.27;33.62
72024;BME280;59889;50.700;5.440;2024-03-08T01:40:41;99887.40;;;21.17;33.72
72024;BME280;59889;50.700;5.440;2024-03-08T01:43:17;99885.08;;;20.93;33.69
72024;BME280;59889;50.700;5.440;2024-03-08T01:45:30;99883.77;;;21.35;33.52
72024;BME280;59889;50.700;5.440;2024-03-08T01:47:56;99880.42;;;21.16;33.73
72024;BME280;59889;50.700;5.440;2024-03-08T01:50:21;99876.64;;;20.99;33.61
72024;BME280;59889;50.700;5.440;2024-03-08T01:52:46;99874.60;;;21.19;33.66
72024;BME280;59889;50.700;5.440;2024-03-08T01:55:12;99872.80;;;21.18;33.68
72024;BME280;59889;50.700;5.440;2024-03-08T01:57:37;99867.80;;;21.15;33.69
72024;BME280;59889;50.700;5.440;2024-03-08T02:00:03;99862.39;;;21.17;33.67
72024;BME280;59889;50.700;5.440;2024-03-08T02:02:27;99859.81;;;21.16;33.66
72024;BME280;59889;50.700;5.440;2024-03-08T02:04:53;99858.13;;;21.09;33.74
72024;BME280;59889;50.700;5.440;2024-03-08T02:07:18;99856.20;;;20.93;33.68
72024;BME280;59889;50.700;5.440;2024-03-08T02:09:43;99852.60;;;21.21;33.61
72024;BME280;59889;50.700;5.440;2024-03-08T02:12:09;99848.50;;;21.22;33.59
72024;BME280;59889;50.700;5.440;2024-03-08T02:14:34;99846.34;;;21.05;33.78
72024;BME280;59889;50.700;5.440;2024-03-08T02:17:00;99847.79;;;21.26;33.53
72024;BME280;59889;50.700;5.440;2024-03-08T02:19:24;99842.89;;;20.96;33.58
72024;BME280;59889;50.700;5.440;2024-03-08T02:21:50;99842.13;;;20.73;33.86
72024;BME280;59889;50.700;5.440;2024-03-08T02:24:15;99835.68;;;21.18;33.62
72024;BME280;59889;50.700;5.440;2024-03-08T02:26:40;99831.85;;;21.55;33.46
72024;BME280;59889;50.700;5.440;2024-03-08T02:29:05;99830.41;;;21.24;33.52
72024;BME280;59889;50.700;5.440;2024-03-08T02:31:31;99827.38;;;21.38;33.65
72024;BME280;59889;50.700;5.440;2024-03-08T02:33:56;99827.08;;;21.20;33.56
72024;BME280;59889;50.700;5.440;2024-03-08T02:36:21;99823.60;;;21.13;33.64
72024;BME280;59889;50.700;5.440;2024-03-08T02:38:46;99822.96;;;21.09;33.69
72024;BME280;59889;50.700;5.440;2024-03-08T02:41:12;99819.54;;;21.04;33.72
72024;BME280;59889;50.700;5.440;2024-03-08T02:43:37;99814.47;;;21.29;33.68
72024;BME280;59889;50.700;5.440;2024-03-08T02:46:03;99812.87;;;21.27;33.74
72024;BME280;59889;50.700;5.440;2024-03-08T02:48:28;99809.29;;;21.00;33.77
72024;BME280;59889;50.700;5.440;2024-03-08T02:50:53;99808.04;;;21.07;33.67
72024;BME280;59889;50.700;5.440;2024-03-08T02:53:18;99803.86;;;21.15;33.56
72024;BME280;59889;50.700;5.440;2024-03-08T02:55:44;99803.70;;;21.11;33.61
72024;BME280;59889;50.700;5.440;2024-03-08T02:58:09;99798.16;;;21.39;33.53
72024;BME280;59889;50.700;5.440;2024-03-08T03:00:34;99796.96;;;21.03;33.70
72024;BME280;59889;50.700;5.440;2024-03-08T03:02:59;99794.38;;;21.01;33.74
72024;BME280;59889;50.700;5.440;2024-03-08T03:05:25;99790.32;;;21.32;33.63
72024;BME280;59889;50.700;5.440;2024-03-08T03:07:51;99786.88;;;21.27;33.67
72024;BME280;59889;50.700;5.440;2024-03-08T03:10:17;99784.43;;;20.81;33.65
72024;BME280;59889;50.700;5.440;2024-03-08T03:12:40;99780.12;;;21.20;33.48
72024;BME280;59889;50.700;5.440;2024-03-08T03:15:06;99779.96;;;20.96;33.72
72024;BME280;59889;50.700;5.440;2024-03-08T03:17:31;99776.25;;;20.93;33.77
72024;BME280;59889;50.700;5.440;2024-03-08T03:19:56;99771.61;;;21.28;33.63
72024;BME280;59889;50.700;5.440;2024-03-08T03:22:22;99774.40;;;21.09;33.56
72024;BME280;59889;50.700;5.440;2024-03-08T03:24:47;99775.29;;;21.10;33.56
72024;BME280;59889;50.700;5.440;2024-03-08T03:27:12;99773.91;;;21.05;33.60
72024;BME280;59889;50.700;5.440;2024-03-08T03:29:38;99773.99;;;21.04;33.60
72024;BME280;59889;50.700;5.440;2024-03-08T03:32:03;99774.83;;;21.28;33.60
72024;BME280;59889;50.700;5.440;2024-03-08T03:34:28;99770.92;;;20.95;33.70
72024;BME280;59889;50.700;5.440;2024-03-08T03:36:53;99770.98;;;21.43;33.40
72024;BME280;59889;50.700;5.440;2024-03-08T03:39:19;99771.30;;;21.21;33.66
72024;BME280;59889;50.700;5.440;2024-03-08T03:41:44;99768.11;;;21.33;33.49
72024;BME280;59889;50.700;5.440;2024-03-08T03:44:09;99766.97;;;20.84;33.53
72024;BME280;59889;50.700;5.440;2024-03-08T03:46:34;99761.53;;;20.99;33.59
72024;BME280;59889;50.700;5.440;2024-03-08T03:49:01;99761.11;;;21.13;33.45
72024;BME280;59889;50.700;5.440;2024-03-08T03:51:25;99759.00;;;21.16;33.41
72024;BME280;59889;50.700;5.440;2024-03-08T03:53:50;99757.78;;;21.12;33.44
72024;BME280;59889;50.700;5.440;2024-03-08T03:56:15;99752.09;;;21.09;33.47
72024;BME280;59889;50.700;5.440;2024-03-08T03:58:41;99745.96;;;21.18;33.62
72024;BME280;59889;50.700;5.440;2024-03-08T04:01:06;99744.61;;;20.84;33.48
72024;BME280;59889;50.700;5.440;2024-03-08T04:03:31;99740.61;;;21.05;33.77
72024;BME280;59889;50.700;5.440;2024-03-08T04:05:57;99742.83;;;21.02;33.52
72024;BME280;59889;50.700;5.440;2024-03-08T04:08:22;99740.42;;;21.27;33.50
72024;BME280;59889;50.700;5.440;2024-03-08T04:10:47;99735.24;;;21.00;33.81
72024;BME280;59889;50.700;5.440;2024-03-08T04:13:13;99733.07;;;20.89;33.68
72024;BME280;59889;50.700;5.440;2024-03-08T04:15:38;99728.62;;;21.14;33.64
72024;BME280;59889;50.700;5.440;2024-03-08T04:18:04;99729.06;;;20.95;33.58
72024;BME280;59889;50.700;5.440;2024-03-08T04:20:28;99725.73;;;21.27;33.44
72024;BME280;59889;50.700;5.440;2024-03-08T04:22:54;99724.64;;;20.98;33.51
72024;BME280;59889;50.700;5.440;2024-03-08T04:25:19;99722.17;;;21.24;33.50
72024;BME280;59889;50.700;5.440;2024-03-08T04:27:44;99718.67;;;20.89;33.60
72024;BME280;59889;50.700;5.440;2024-03-08T04:30:10;99716.16;;;20.90;33.56
72024;BME280;59889;50.700;5.440;2024-03-08T04:32:35;99713.58;;;20.97;33.52
72024;BME280;59889;50.700;5.440;2024-03-08T04:35:00;99712.08;;;20.95;33.48
72024;BME280;59889;50.700;5.440;2024-03-08T04:37:25;99712.21;;;21.25;33.42
72024;BME280;59889;50.700;5.440;2024-03-08T04:39:51;99710.11;;;21.23;33.48
72024;BME280;59889;50.700;5.440;2024-03-08T04:42:16;99710.54;;;21.24;33.43
72024;BME280;59889;50.700;5.440;2024-03-08T04:44:41;99709.44;;;21.01;33.40
72024;BME280;59889;50.700;5.440;2024-03-08T04:47:07;99708.91;;;20.90;33.52
72024;BME280;59889;50.700;5.440;2024-03-08T04:49:32;99707.40;;;21.31;33.34
72024;BME280;59889;50.700;5.440;2024-03-08T04:51:57;99705.33;;;21.27;33.38
72024;BME280;59889;50.700;5.440;2024-03-08T04:54:22;99707.00;;;21.22;33.44
72024;BME280;59889;50.700;5.440;2024-03-08T04:56:48;99701.48;;;21.01;33.37
72024;BME280;59889;50.700;5.440;2024-03-08T04:59:13;99697.89;;;21.04;33.35
72024;BME280;59889;50.700;5.440;2024-03-08T05:01:38;99695.53;;;21.17;33.44
72024;BME280;59889;50.700;5.440;2024-03-08T05:04:04;99691.95;;;20.83;33.56
72024;BME280;59889;50.700;5.440;2024-03-08T05:06:29;99688.85;;;20.84;33.53
72024;BME280;59889;50.700;5.440;2024-03-08T05:08:55;99681.32;;;21.05;33.57
72024;BME280;59889;50.700;5.440;2024-03-08T05:11:19;99679.57;;;20.85;33.53
72024;BME280;59889;50.700;5.440;2024-03-08T05:13:45;99676.73;;;21.00;33.64
72024;BME280;59889;50.700;5.440;2024-03-08T05:16:10;99674.58;;;21.17;33.46
72024;BME280;59889;50.700;5.440;2024-03-08T05:18:35;99672.54;;;21.14;33.49
72024;BME280;59889;50.700;5.440;2024-03-08T05:21:00;99670.67;;;21.23;33.37
72024;BME280;59889;50.700;5.440;2024-03-08T05:23:26;99668.24;;;20.87;33.49
72024;BME280;59889;50.700;5.440;2024-03-08T05:25:51;99664.20;;;20.97;33.37
72024;BME280;59889;50.700;5.440;2024-03-08T05:28:16;99663.02;;;21.17;33.43
72024;BME280;59889;50.700;5.440;2024-03-08T05:30:41;99660.72;;;21.07;33.24
72024;BME280;59889;50.700;5.440;2024-03-08T05:33:08;99659.72;;;21.25;33.33
72024;BME280;59889;50.700;5.440;2024-03-08T05:35:32;99659.23;;;21.26;33.30
72024;BME280;59889;50.700;5.440;2024-03-08T05:37:57;99654.07;;;21.14;33.19
72024;BME280;59889;50.700;5.440;2024-03-08T05:40:23;99651.47;;;21.18;33.14
72024;BME280;59889;50.700;5.440;2024-03-08T05:42:48;99652.16;;;21.06;33.24
72024;BME280;59889;50.700;5.440;2024-03-08T05:45:13;99652.77;;;20.85;33.26
72024;BME280;59889;50.700;5.440;2024-03-08T05:47:39;99649.01;;;20.93;33.38
72024;BME280;59889;50.700;5.440;2024-03-08T05:50:06;99648.70;;;21.09;33.26
72024;BME280;59889;50.700;5.440;2024-03-08T05:52:29;99647.95;;;20.98;33.36
72024;BME280;59889;50.700;5.440;2024-03-08T05:54:54;99646.20;;;21.20;33.40
72024;BME280;59889;50.700;5.440;2024-03-08T05:57:20;99646.66;;;21.03;33.34
72024;BME280;59889;50.700;5.440;2024-03-08T05:59:45;99646.14;;;21.08;33.25
72024;BME280;59889;50.700;5.440;2024-03-08T06:02:10;99648.37;;;21.06;33.33
72024;BME280;59889;50.700;5.440;2024-03-08T06:04:36;99641.68;;;21.28;33.33
72024;BME280;59889;50.700;5.440;2024-03-08T06:07:01;99638.25;;;20.77;33.36
72024;BME280;59889;50.700;5.440;2024-03-08T06:09:26;99636.52;;;21.04;33.35
72024;BME280;59889;50.700;5.440;2024-03-08T06:11:51;99635.17;;;20.99;33.40
72024;BME280;59889;50.700;5.440;2024-03-08T06:14:16;99632.01;;;21.31;33.33
72024;BME280;59889;50.700;5.440;2024-03-08T06:16:42;99628.64;;;21.00;33.41
72024;BME280;59889;50.700;5.440;2024-03-08T06:19:07;99627.68;;;21.08;33.35
72024;BME280;59889;50.700;5.440;2024-03-08T06:21:32;99625.25;;;21.26;33.41
72024;BME280;59889;50.700;5.440;2024-03-08T06:23:58;99626.35;;;21.01;33.40
72024;BME280;59889;50.700;5.440;2024-03-08T06:26:23;99626.96;;;21.10;33.32
72024;BME280;59889;50.700;5.440;2024-03-08T06:28:48;99627.31;;;20.97;33.48
72024;BME280;59889;50.700;5.440;2024-03-08T06:31:14;99626.83;;;21.02;33.43
72024;BME280;59889;50.700;5.440;2024-03-08T06:33:39;99629.30;;;21.02;33.44
72024;BME280;59889;50.700;5.440;2024-03-08T06:36:05;99628.69;;;21.25;33.42
72024;BME280;59889;50.700;5.440;2024-03-08T06:38:29;99626.64;;;21.28;33.39
72024;BME280;59889;50.700;5.440;2024-03-08T06:40:55;99625.78;;;21.30;33.37
72024;BME280;59889;50.700;5.440;2024-03-08T06:43:20;99624.04;;;20.76;33.41
72024;BME280;59889;50.700;5.440;2024-03-08T06:45:46;99624.51;;;21.36;33.30
72024;BME280;59889;50.700;5.440;2024-03-08T06:48:10;99620.71;;;21.05;33.35
72024;BME280;59889;50.700;5.440;2024-03-08T06:50:36;99621.15;;;21.13;33.28
72024;BME280;59889;50.700;5.440;2024-03-08T06:53:01;99618.38;;;21.15;33.23
72024;BME280;59889;50.700;5.440;2024-03-08T06:55:26;99617.37;;;21.13;32.99
72024;BME280;59889;50.700;5.440;2024-03-08T06:57:52;99612.84;;;21.45;32.92
72024;BME280;59889;50.700;5.440;2024-03-08T07:00:17;99605.69;;;21.52;32.79
72024;BME280;59889;50.700;5.440;2024-03-08T07:02:42;99601.82;;;21.38;32.69
72024;BME280;59889;50.700;5.440;2024-03-08T07:05:08;99599.27;;;21.43;32.64
72024;BME280;59889;50.700;5.440;2024-03-08T07:07:33;99600.05;;;21.88;32.64
72024;BME280;59889;50.700;5.440;2024-03-08T07:09:58;99596.78;;;21.48;32.55
72024;BME280;59889;50.700;5.440;2024-03-08T07:12:23;99594.63;;;21.84;32.15
72024;BME280;59889;50.700;5.440;2024-03-08T07:14:49;99593.97;;;22.08;31.84
72024;BME280;59889;50.700;5.440;2024-03-08T07:17:14;99593.65;;;22.29;31.57
72024;BME280;59889;50.700;5.440;2024-03-08T07:19:39;99589.31;;;22.51;31.37
72024;BME280;59889;50.700;5.440;2024-03-08T07:22:04;99583.94;;;22.53;30.75
72024;BME280;59889;50.700;5.440;2024-03-08T07:24:30;99579.63;;;23.16;30.07
72024;BME280;59889;50.700;5.440;2024-03-08T07:26:55;99574.83;;;23.70;29.44
72024;BME280;59889;50.700;5.440;2024-03-08T07:29:20;99573.50;;;24.11;28.98
72024;BME280;59889;50.700;5.440;2024-03-08T07:31:45;99569.63;;;23.69;28.85
72024;BME280;59889;50.700;5.440;2024-03-08T07:34:11;99566.88;;;24.57;28.28
72024;BME280;59889;50.700;5.440;2024-03-08T07:36:36;99564.61;;;24.72;27.79
72024;BME280;59889;50.700;5.440;2024-03-08T07:39:01;99564.85;;;24.99;27.28
72024;BME280;59889;50.700;5.440;2024-03-08T07:41:26;99562.29;;;24.99;27.01
72024;BME280;59889;50.700;5.440;2024-03-08T07:43:51;99560.54;;;24.94;27.01
72024;BME280;59889;50.700;5.440;2024-03-08T07:46:17;99560.72;;;25.24;26.77
72024;BME280;59889;50.700;5.440;2024-03-08T07:48:42;99557.52;;;24.87;27.17
72024;BME280;59889;50.700;5.440;2024-03-08T07:51:07;99556.13;;;24.13;27.80
72024;BME280;59889;50.700;5.440;2024-03-08T07:53:32;99554.82;;;24.06;28.41
72024;BME280;59889;50.700;5.440;2024-03-08T07:55:58;99553.21;;;23.35;29.12
72024;BME280;59889;50.700;5.440;2024-03-08T07:58:23;99550.28;;;23.25;29.49
72024;BME280;59889;50.700;5.440;2024-03-08T08:00:48;99551.69;;;22.86;30.20
72024;BME280;59889;50.700;5.440;2024-03-08T08:03:14;99548.65;;;22.87;30.51
72024;BME280;59889;50.700;5.440;2024-03-08T08:05:39;99544.11;;;22.38;30.85
72024;BME280;59889;50.700;5.440;2024-03-08T08:08:04;99543.44;;;22.25;30.97
72024;BME280;59889;50.700;5.440;2024-03-08T08:10:29;99539.87;;;22.65;31.06
72024;BME280;59889;50.700;5.440;2024-03-08T08:12:54;99532.79;;;22.51;31.26
72024;BME280;59889;50.700;5.440;2024-03-08T08:15:20;99531.38;;;22.34;31.47
72024;BME280;59889;50.700;5.440;2024-03-08T08:17:45;99526.58;;;22.27;31.56
72024;BME280;59889;50.700;5.440;2024-03-08T08:20:11;99526.12;;;22.22;31.63
72024;BME280;59889;50.700;5.440;2024-03-08T08:22:35;99523.99;;;22.13;31.74
72024;BME280;59889;50.700;5.440;2024-03-08T08:25:01;99518.40;;;22.16;31.72
72024;BME280;59889;50.700;5.440;2024-03-08T08:27:32;99519.10;;;22.07;31.84
72024;BME280;59889;50.700;5.440;2024-03-08T08:29:51;99510.90;;;22.00;31.91
72024;BME280;59889;50.700;5.440;2024-03-08T08:32:16;99508.27;;;21.92;32.00
72024;BME280;59889;50.700;5.440;2024-03-08T08:34:44;99502.32;;;21.97;31.94
72024;BME280;59889;50.700;5.440;2024-03-08T08:37:07;99498.28;;;22.01;31.89
72024;BME280;59889;50.700;5.440;2024-03-08T08:39:32;99497.49;;;21.90;32.03
72024;BME280;59889;50.700;5.440;2024-03-08T08:41:58;99495.21;;;21.96;31.98
72024;BME280;59889;50.700;5.440;2024-03-08T08:44:23;99493.55;;;21.96;31.98
72024;BME280;59889;50.700;5.440;2024-03-08T08:46:48;99491.99;;;21.90;32.05
72024;BME280;59889;50.700;5.440;2024-03-08T08:49:13;99491.42;;;21.78;32.20
72024;BME280;59889;50.700;5.440;2024-03-08T08:51:39;99489.00;;;21.88;32.09
72024;BME280;59889;50.700;5.440;2024-03-08T08:54:04;99483.91;;;21.86;32.09
72024;BME280;59889;50.700;5.440;2024-03-08T08:56:29;99482.73;;;22.18;32.02
72024;BME280;59889;50.700;5.440;2024-03-08T08:58:54;99481.90;;;21.73;32.26
72024;BME280;59889;50.700;5.440;2024-03-08T09:01:20;99477.52;;;21.89;32.10
72024;BME280;59889;50.700;5.440;2024-03-08T09:03:45;99473.38;;;21.82;32.12
72024;BME280;59889;50.700;5.440;2024-03-08T09:06:10;99470.23;;;21.98;31.97
72024;BME280;59889;50.700;5.440;2024-03-08T09:08:35;99466.07;;;21.69;32.02
72024;BME280;59889;50.700;5.440;2024-03-08T09:11:01;99462.75;;;21.89;32.08
72024;BME280;59889;50.700;5.440;2024-03-08T09:13:26;99459.17;;;21.89;32.08
72024;BME280;59889;50.700;5.440;2024-03-08T09:15:51;99453.85;;;22.02;31.92
72024;BME280;59889;50.700;5.440;2024-03-08T09:18:16;99453.10;;;21.73;32.24
72024;BME280;59889;50.700;5.440;2024-03-08T09:20:42;99450.63;;;22.25;31.94
72024;BME280;59889;50.700;5.440;2024-03-08T09:23:07;99443.59;;;21.80;32.18
72024;BME280;59889;50.700;5.440;2024-03-08T09:25:32;99445.01;;;21.52;32.48
72024;BME280;59889;50.700;5.440;2024-03-08T09:27:58;99445.08;;;21.85;32.12
72024;BME280;59889;50.700;5.440;2024-03-08T09:30:23;99442.59;;;21.57;32.16
72024;BME280;59889;50.700;5.440;2024-03-08T09:32:48;99441.54;;;21.82;32.13
72024;BME280;59889;50.700;5.440;2024-03-08T09:35:13;99435.41;;;21.75;32.21
72024;BME280;59889;50.700;5.440;2024-03-08T09:37:39;99431.53;;;21.53;32.51
72024;BME280;59889;50.700;5.440;2024-03-08T09:40:05;99425.89;;;21.39;32.61
72024;BME280;59889;50.700;5.440;2024-03-08T09:42:29;99426.24;;;21.55;32.48
72024;BME280;59889;50.700;5.440;2024-03-08T09:44:54;99423.92;;;21.49;32.54
72024;BME280;59889;50.700;5.440;2024-03-08T09:47:22;99423.53;;;21.66;32.33
72024;BME280;59889;50.700;5.440;2024-03-08T09:49:45;99415.61;;;21.46;32.57
72024;BME280;59889;50.700;5.440;2024-03-08T09:52:10;99411.98;;;21.63;32.43
72024;BME280;59889;50.700;5.440;2024-03-08T09:54:36;99406.52;;;21.89;32.11
72024;BME280;59889;50.700;5.440;2024-03-08T09:57:02;99398.99;;;22.18;32.04
72024;BME280;59889;50.700;5.440;2024-03-08T09:59:26;99396.25;;;21.70;32.28
72024;BME280;59889;50.700;5.440;2024-03-08T10:01:51;99390.37;;;21.91;32.03
72024;BME280;59889;50.700;5.440;2024-03-08T10:04:18;99383.66;;;22.04;31.92
72024;BME280;59889;50.700;5.440;2024-03-08T10:06:42;99382.89;;;21.53;32.21
72024;BME280;59889;50.700;5.440;2024-03-08T10:09:07;99376.78;;;21.98;31.97
72024;BME280;59889;50.700;5.440;2024-03-08T10:11:32;99373.51;;;22.03;31.91
72024;BME280;59889;50.700;5.440;2024-03-08T10:14:00;99369.38;;;21.99;31.95
72024;BME280;59889;50.700;5.440;2024-03-08T10:16:25;99370.44;;;22.09;31.84
72024;BME280;59889;50.700;5.440;2024-03-08T10:18:48;99369.59;;;21.80;31.87
72024;BME280;59889;50.700;5.440;2024-03-08T10:21:13;99367.16;;;22.14;31.81
72024;BME280;59889;50.700;5.440;2024-03-08T10:23:39;99367.89;;;21.80;31.87
72024;BME280;59889;50.700;5.440;2024-03-08T10:26:10;99366.46;;;22.13;31.78
72024;BME280;59889;50.700;5.440;2024-03-08T10:28:29;99360.83;;;22.13;31.74
72024;BME280;59889;50.700;5.440;2024-03-08T10:30:56;99360.10;;;22.07;31.77
72024;BME280;59889;50.700;5.440;2024-03-08T10:33:20;99355.62;;;21.83;31.78
72024;BME280;59889;50.700;5.440;2024-03-08T10:35:45;99353.59;;;22.03;31.77
72024;BME280;59889;50.700;5.440;2024-03-08T10:38:12;99353.75;;;22.06;31.74
72024;BME280;59889;50.700;5.440;2024-03-08T10:40:37;99348.84;;;21.74;31.81
72024;BME280;59889;50.700;5.440;2024-03-08T10:43:01;99348.98;;;22.07;31.66
72024;BME280;59889;50.700;5.440;2024-03-08T10:45:31;99342.17;;;21.71;31.81
72024;BME280;59889;50.700;5.440;2024-03-08T10:47:57;99339.76;;;21.90;31.80
72024;BME280;59889;50.700;5.440;2024-03-08T10:50:19;99336.43;;;21.69;31.76
72024;BME280;59889;50.700;5.440;2024-03-08T10:52:42;99331.06;;;21.91;31.76
72024;BME280;59889;50.700;5.440;2024-03-08T10:55:09;99329.18;;;21.72;31.72
72024;BME280;59889;50.700;5.440;2024-03-08T10:57:33;99327.28;;;21.98;31.72
72024;BME280;59889;50.700;5.440;2024-03-08T10:59:58;99326.15;;;21.89;31.77
72024;BME280;59889;50.700;5.440;2024-03-08T11:02:25;99318.95;;;21.92;31.75
72024;BME280;59889;50.700;5.440;2024-03-08T11:04:50;99312.26;;;22.14;31.77
72024;BME280;59889;50.700;5.440;2024-03-08T11:07:14;99306.63;;;21.79;31.90
72024;BME280;59889;50.700;5.440;2024-03-08T11:09:39;99305.41;;;21.81;31.90
72024;BME280;59889;50.700;5.440;2024-03-08T11:12:20;99302.55;;;21.75;31.99
72024;BME280;59889;50.700;5.440;2024-03-08T11:14:42;99299.61;;;21.34;32.42
72024;BME280;59889;50.700;5.440;2024-03-08T11:16:55;99297.16;;;21.79;31.94
72024;BME280;59889;50.700;5.440;2024-03-08T11:19:25;99290.80;;;21.59;31.89
72024;BME280;59889;50.700;5.440;2024-03-08T11:21:45;99290.85;;;21.78;31.97
72024;BME280;59889;50.700;5.440;2024-03-08T11:24:12;99285.43;;;21.62;32.12
72024;BME280;59889;50.700;5.440;2024-03-08T11:26:37;99286.45;;;21.77;31.98
72024;BME280;59889;50.700;5.440;2024-03-08T11:31:26;99281.86;;;21.92;31.84
72024;BME280;59889;50.700;5.440;2024-03-08T11:33:52;99278.10;;;21.89;31.86
72024;BME280;59889;50.700;5.440;2024-03-08T11:36:21;99281.20;;;21.88;31.88
72024;BME280;59889;50.700;5.440;2024-03-08T11:38:42;99274.88;;;21.81;31.97
72024;BME280;59889;50.700;5.440;2024-03-08T11:41:07;99271.66;;;21.86;31.90
72024;BME280;59889;50.700;5.440;2024-03-08T11:43:33;99271.19;;;21.93;31.82
72024;BME280;59889;50.700;5.440;2024-03-08T11:46:07;99266.56;;;21.88;31.89
72024;BME280;59889;50.700;5.440;2024-03-08T11:48:23;99263.96;;;21.63;32.13
72024;BME280;59889;50.700;5.440;2024-03-08T11:50:59;99258.19;;;21.75;32.02
72024;BME280;59889;50.700;5.440;2024-03-08T11:53:14;99253.91;;;21.85;31.91
72024;BME280;59889;50.700;5.440;2024-03-08T11:55:39;99252.18;;;21.87;31.92
72024;BME280;59889;50.700;5.440;2024-03-08T11:58:05;99248.07;;;21.87;31.88
72024;BME280;59889;50.700;5.440;2024-03-08T12:00:30;99241.88;;;21.68;31.83
72024;BME280;59889;50.700;5.440;2024-03-08T12:03:01;99240.29;;;21.85;31.94
72024;BME280;59889;50.700;5.440;2024-03-08T12:05:20;99238.29;;;21.78;32.01
72024;BME280;59889;50.700;5.440;2024-03-08T12:07:55;99233.14;;;21.65;32.17
72024;BME280;59889;50.700;5.440;2024-03-08T12:10:15;99234.54;;;21.45;32.10
72024;BME280;59889;50.700;5.440;2024-03-08T12:12:36;99230.50;;;21.75;32.04
72024;BME280;59889;50.700;5.440;2024-03-08T12:15:01;99227.12;;;21.58;31.96
72024;BME280;59889;50.700;5.440;2024-03-08T12:17:26;99223.35;;;21.64;31.90
72024;BME280;59889;50.700;5.440;2024-03-08T12:19:52;99220.78;;;21.79;32.01
72024;BME280;59889;50.700;5.440;2024-03-08T12:22:17;99218.57;;;21.74;32.07
72024;BME280;59889;50.700;5.440;2024-03-08T12:24:42;99214.86;;;21.73;32.08
72024;BME280;59889;50.700;5.440;2024-03-08T12:27:17;99211.50;;;21.49;32.37
72024;BME280;59889;50.700;5.440;2024-03-08T12:29:33;99205.16;;;21.72;32.08
72024;BME280;59889;50.700;5.440;2024-03-08T12:31:59;99200.76;;;21.92;32.14
72024;BME280;59889;50.700;5.440;2024-03-08T12:34:24;99199.17;;;21.73;32.08
72024;BME280;59889;50.700;5.440;2024-03-08T12:36:50;99193.04;;;21.37;32.20
72024;BME280;59889;50.700;5.440;2024-03-08T12:39:16;99188.22;;;21.58;32.25
72024;BME280;59889;50.700;5.440;2024-03-08T12:41:39;99185.39;;;21.67;32.13
72024;BME280;59889;50.700;5.440;2024-03-08T12:44:04;99180.45;;;21.65;32.14
72024;BME280;59889;50.700;5.440;2024-03-08T12:46:30;99179.40;;;21.23;32.63
72024;BME280;59889;50.700;5.440;2024-03-08T12:48:55;99174.87;;;21.65;32.15
72024;BME280;59889;50.700;5.440;2024-03-08T12:51:21;99172.56;;;21.69;32.12